Time;durP1;ratioP1;P1;durP2;ratioP2;P2;SDS_P1;SDS_P2;PMS_P1;PMS_P2;Temp;Humidity;BMP_temperature;BMP_pressure;BME280_temperature;BME280_humidity;BME280_pressure;Samples;Min_cycle;Max_cycle;Signal;HPM_P1;HPM_P2
2021/12/31 00:01:43;;;;;;;0.00;0.00;;;;;24.20;99967.00;;;;5113608;28;20045;-79
2021/12/31 00:04:13;;;;;;;0.00;0.00;;;;;24.00;99957.00;;;;5114439;28;20090;-76
2021/12/31 00:06:44;;;;;;;0.00;0.00;;;;;23.90;99969.00;;;;5113934;28;20048;-76
2021/12/31 00:09:17;;;;;;;0.10;0.05;;;;;23.80;99953.00;;;;5114543;28;20754;-78
2021/12/31 00:11:46;;;;;;;0.00;0.00;;;;;23.80;99954.00;;;;5112548;27;20039;-77
2021/12/31 00:14:16;;;;;;;0.28;0.28;;;;;23.80;99961.00;;;;5110335;28;20035;-76
2021/12/31 00:16:45;;;;;;;0.00;0.00;;;;;23.90;99969.00;;;;5110448;28;20043;-76
2021/12/31 00:19:15;;;;;;;0.00;0.00;;;;;24.00;99990.00;;;;5110699;28;20138;-76
2021/12/31 00:21:47;;;;;;;0.00;0.00;;;;;24.10;99975.00;;;;5110428;28;20047;-76
2021/12/31 00:24:18;;;;;;;0.40;0.38;;;;;24.30;99977.00;;;;5110152;28;20043;-76
2021/12/31 00:26:48;;;;;;;0.00;0.00;;;;;24.30;99990.00;;;;5109830;28;20051;-76
2021/12/31 00:29:17;;;;;;;0.10;0.10;;;;;24.20;99976.00;;;;5108530;28;20461;-75
2021/12/31 00:31:49;;;;;;;0.00;0.00;;;;;24.10;99991.00;;;;5111159;28;20131;-75
2021/12/31 00:34:19;;;;;;;0.00;0.00;;;;;24.00;99973.00;;;;5110568;27;20048;-77
2021/12/31 00:36:49;;;;;;;0.00;0.00;;;;;24.00;99980.00;;;;5109665;28;20716;-76
2021/12/31 00:39:18;;;;;;;0.00;0.00;;;;;24.00;99976.00;;;;5109577;28;20051;-75
2021/12/31 00:41:48;;;;;;;0.00;0.00;;;;;24.00;99990.00;;;;5109937;28;20051;-76
2021/12/31 00:44:17;;;;;;;0.00;0.00;;;;;23.90;99982.00;;;;5109430;28;20043;-76
2021/12/31 00:46:48;;;;;;;0.00;0.00;;;;;23.80;99984.00;;;;5110090;28;20051;-77
2021/12/31 00:49:18;;;;;;;0.00;0.00;;;;;23.70;99979.00;;;;5109172;28;20051;-76
2021/12/31 00:51:47;;;;;;;0.17;0.00;;;;;23.70;99968.00;;;;5110150;28;20048;-76
2021/12/31 00:54:16;;;;;;;0.00;0.00;;;;;23.60;99987.00;;;;5110033;28;20085;-76
2021/12/31 00:56:46;;;;;;;0.00;0.00;;;;;23.70;99986.00;;;;5108770;28;20074;-76
2021/12/31 00:59:15;;;;;;;0.00;0.00;;;;;23.60;99987.00;;;;5109335;28;20047;-77
2021/12/31 01:01:45;;;;;;;0.00;0.00;;;;;23.40;100000.00;;;;5109279;28;20044;-76
2021/12/31 01:04:14;;;;;;;0.32;0.32;;;;;23.30;99990.00;;;;5109571;28;20054;-76
2021/12/31 01:06:44;;;;;;;0.00;0.00;;;;;23.30;100004.00;;;;5109576;28;20043;-77
2021/12/31 01:09:13;;;;;;;0.00;0.00;;;;;23.10;100008.00;;;;5109138;28;20035;-77
2021/12/31 01:11:46;;;;;;;0.00;0.00;;;;;22.90;99999.00;;;;5108746;28;20042;-77
2021/12/31 01:17:03;;;;;;;0.00;0.00;;;;;23.20;100001.00;;;;5088423;28;20044;-77
2021/12/31 01:19:46;;;;;;;0.00;0.00;;;;;23.20;100015.00;;;;5088069;28;20072;-77
2021/12/31 01:22:29;;;;;;;0.00;0.00;;;;;23.00;100002.00;;;;5086642;28;20062;-77
2021/12/31 01:25:00;;;;;;;0.00;0.00;;;;;23.00;100009.00;;;;5087576;28;20119;-77
2021/12/31 01:27:29;;;;;;;0.00;0.00;;;;;22.90;100022.00;;;;5087337;28;20101;-77
2021/12/31 01:29:59;;;;;;;0.00;0.00;;;;;23.00;100004.00;;;;5086355;28;20302;-77
2021/12/31 01:32:30;;;;;;;0.00;0.00;;;;;23.10;100013.00;;;;5087597;28;20040;-77
2021/12/31 01:35:00;;;;;;;0.00;0.00;;;;;23.10;100026.00;;;;5086573;28;20044;-77
2021/12/31 01:37:30;;;;;;;0.00;0.00;;;;;23.30;100038.00;;;;5087879;28;20048;-77
2021/12/31 01:39:59;;;;;;;0.00;0.00;;;;;23.20;100036.00;;;;5087874;28;20055;-76
2021/12/31 01:42:32;;;;;;;0.73;0.55;;;;;23.30;100040.00;;;;5087411;28;20052;-77
2021/12/31 01:45:14;;;;;;;0.65;0.38;;;;;23.20;100022.00;;;;5088312;28;20752;-77
2021/12/31 01:50:17;;;;;;;0.17;0.17;;;;;23.40;100017.00;;;;5086146;28;20052;-76
2021/12/31 01:52:46;;;;;;;0.52;0.17;;;;;23.30;100020.00;;;;5087327;28;20036;-77
2021/12/31 01:55:16;;;;;;;1.75;1.40;;;;;23.60;100036.00;;;;5087706;28;20048;-77
2021/12/31 01:57:46;;;;;;;0.13;0.13;;;;;23.70;100000.00;;;;5087817;28;20498;-77
2021/12/31 02:00:15;;;;;;;0.75;0.65;;;;;23.50;100018.00;;;;5086903;28;20048;-77
2021/12/31 02:02:48;;;;;;;0.30;0.10;;;;;23.50;100002.00;;;;5087106;28;20051;-76
2021/12/31 02:05:22;;;;;;;0.00;0.00;;;;;23.40;100026.00;;;;5086117;28;20101;-76
2021/12/31 02:07:51;;;;;;;0.00;0.00;;;;;23.20;100005.00;;;;5086990;28;20036;-75
2021/12/31 02:10:22;;;;;;;;;;;;;23.10;100013.00;;;;5086901;28;20125;-75
2021/12/31 02:12:53;;;;;;;0.17;0.17;;;;;23.00;99992.00;;;;5087064;28;19924;-76
2021/12/31 02:15:24;;;;;;;0.52;0.10;;;;;22.90;100003.00;;;;5086936;28;20047;-76
2021/12/31 02:17:54;;;;;;;0.00;0.00;;;;;22.80;99996.00;;;;5087128;28;20097;-76
2021/12/31 02:20:44;;;;;;;0.22;0.22;;;;;22.80;99996.00;;;;5086975;28;20048;-76
2021/12/31 02:23:20;;;;;;;0.00;0.00;;;;;22.80;99995.00;;;;5086794;28;20087;-76
2021/12/31 02:25:50;;;;;;;0.00;0.00;;;;;22.70;99976.00;;;;5087250;28;20055;-76
2021/12/31 02:28:20;;;;;;;0.00;0.00;;;;;22.60;100002.00;;;;5087201;28;20039;-76
2021/12/31 02:30:50;;;;;;;0.07;0.07;;;;;22.50;99986.00;;;;5086928;28;20083;-76
2021/12/31 02:33:19;;;;;;;0.00;0.00;;;;;22.40;100001.00;;;;5086509;28;20117;-76
2021/12/31 02:35:49;;;;;;;0.40;0.35;;;;;22.40;100017.00;;;;5086999;28;20059;-76
2021/12/31 02:38:18;;;;;;;0.08;0.08;;;;;22.20;99992.00;;;;5086800;28;20078;-76
2021/12/31 02:40:48;;;;;;;0.00;0.00;;;;;22.20;99998.00;;;;5085973;28;20051;-76
2021/12/31 02:43:17;;;;;;;0.00;0.00;;;;;22.00;100000.00;;;;5087103;28;20928;-76
2021/12/31 02:45:47;;;;;;;0.00;0.00;;;;;22.00;99987.00;;;;5087437;28;20499;-76
2021/12/31 02:48:25;;;;;;;0.20;0.20;;;;;22.00;99984.00;;;;5086584;28;20113;-76
2021/12/31 02:50:57;;;;;;;0.00;0.00;;;;;22.00;99981.00;;;;5086797;28;20040;-76
2021/12/31 02:53:37;;;;;;;0.00;0.00;;;;;21.90;99996.00;;;;5086473;28;20043;-76
2021/12/31 02:56:12;;;;;;;0.00;0.00;;;;;21.80;99989.00;;;;5086738;28;20090;-75
2021/12/31 02:58:43;;;;;;;0.00;0.00;;;;;21.70;99984.00;;;;5084838;28;20121;-76
2021/12/31 03:01:13;;;;;;;0.00;0.00;;;;;21.80;99989.00;;;;5086314;28;20131;-76
2021/12/31 03:03:43;;;;;;;1.40;0.20;;;;;21.80;99976.00;;;;5085880;28;20529;-76
2021/12/31 03:06:15;;;;;;;0.00;0.00;;;;;21.70;99988.00;;;;5086230;28;20067;-76
2021/12/31 03:08:48;;;;;;;0.00;0.00;;;;;21.60;99982.00;;;;5086287;28;20119;-76
2021/12/31 03:11:19;;;;;;;0.00;0.00;;;;;21.60;99970.00;;;;5086180;28;20032;-76
2021/12/31 03:13:54;;;;;;;0.10;0.10;;;;;21.50;99957.00;;;;5085903;28;20044;-76
2021/12/31 03:16:24;;;;;;;0.00;0.00;;;;;21.50;99966.00;;;;5086524;28;20119;-76
2021/12/31 03:18:55;;;;;;;0.00;0.00;;;;;21.50;99976.00;;;;5085833;28;20446;-76
2021/12/31 03:21:25;;;;;;;0.00;0.00;;;;;21.40;99968.00;;;;5085566;28;20036;-76
2021/12/31 03:23:55;;;;;;;0.00;0.00;;;;;21.30;99973.00;;;;5086264;28;20089;-76
2021/12/31 03:26:25;;;;;;;0.10;0.10;;;;;21.30;99968.00;;;;5085482;28;20051;-77
2021/12/31 03:28:55;;;;;;;0.00;0.00;;;;;21.30;99973.00;;;;5088806;28;20482;-76
2021/12/31 03:31:24;;;;;;;0.00;0.00;;;;;21.20;99964.00;;;;5088622;28;20047;-75
2021/12/31 03:33:54;;;;;;;0.28;0.28;;;;;21.20;99945.00;;;;5086512;28;20210;-76
2021/12/31 03:36:23;;;;;;;0.20;0.20;;;;;21.20;99961.00;;;;5085238;28;20040;-76
2021/12/31 03:38:52;;;;;;;4.18;0.40;;;;;21.20;99950.00;;;;5085989;28;20469;-76
2021/12/31 03:41:22;;;;;;;0.00;0.00;;;;;21.20;99938.00;;;;5086828;28;20056;-76
2021/12/31 03:43:51;;;;;;;0.00;0.00;;;;;21.20;99943.00;;;;5085934;28;20044;-76
2021/12/31 03:46:22;;;;;;;0.00;0.00;;;;;21.20;99945.00;;;;5086206;28;20075;-76
2021/12/31 03:48:52;;;;;;;0.73;0.35;;;;;21.10;99932.00;;;;5086809;28;20048;-75
2021/12/31 03:51:22;;;;;;;0.00;0.00;;;;;21.00;99926.00;;;;5086627;28;20538;-76
2021/12/31 03:53:51;;;;;;;0.20;0.20;;;;;21.10;99917.00;;;;5084826;28;20511;-76
2021/12/31 03:56:23;;;;;;;0.00;0.00;;;;;21.10;99935.00;;;;5085840;28;20086;-76
2021/12/31 03:58:55;;;;;;;0.00;0.00;;;;;21.10;99911.00;;;;5083965;28;20136;-76
2021/12/31 04:01:26;;;;;;;0.00;0.00;;;;;21.00;99902.00;;;;5085326;28;20116;-76
2021/12/31 04:03:56;;;;;;;0.05;0.03;;;;;21.00;99922.00;;;;5085451;28;20546;-76
2021/12/31 04:06:26;;;;;;;0.10;0.10;;;;;20.90;99899.00;;;;5084703;28;20077;-76
2021/12/31 04:08:55;;;;;;;0.20;0.20;;;;;20.90;99907.00;;;;5085367;28;20047;-76
2021/12/31 04:11:25;;;;;;;0.00;0.00;;;;;20.90;99914.00;;;;5084882;28;20052;-76
2021/12/31 04:13:54;;;;;;;0.00;0.00;;;;;20.90;99900.00;;;;5085341;28;20131;-76
2021/12/31 04:16:24;;;;;;;0.15;0.15;;;;;21.00;99898.00;;;;5084761;28;20047;-76
2021/12/31 04:18:53;;;;;;;0.10;0.10;;;;;21.00;99893.00;;;;5086713;28;20068;-76
2021/12/31 04:21:23;;;;;;;1.10;0.40;;;;;20.90;99901.00;;;;5086072;28;20093;-76
2021/12/31 04:24:06;;;;;;;0.50;0.50;;;;;20.80;99886.00;;;;5086655;28;20040;-76
2021/12/31 04:26:36;;;;;;;0.00;0.00;;;;;20.80;99888.00;;;;5088457;28;20293;-76
2021/12/31 04:29:05;;;;;;;0.00;0.00;;;;;20.80;99888.00;;;;5087842;28;20510;-76
2021/12/31 04:31:35;;;;;;;1.40;1.08;;;;;20.80;99905.00;;;;5088596;28;20116;-76
2021/12/31 04:34:06;;;;;;;0.32;0.32;;;;;20.70;99904.00;;;;5088669;28;20043;-76
2021/12/31 04:36:36;;;;;;;0.10;0.10;;;;;20.70;99899.00;;;;5088765;28;20044;-76
2021/12/31 04:39:06;;;;;;;0.10;0.10;;;;;20.70;99896.00;;;;5089094;28;20055;-76
2021/12/31 04:41:35;;;;;;;0.00;0.00;;;;;20.70;99896.00;;;;5088973;28;20515;-76
2021/12/31 04:44:05;;;;;;;0.20;0.20;;;;;20.70;99890.00;;;;5089037;28;20043;-76
2021/12/31 04:46:35;;;;;;;0.10;0.10;;;;;20.70;99896.00;;;;5087718;28;20044;-75
2021/12/31 04:49:06;;;;;;;0.00;0.00;;;;;20.70;99868.00;;;;5088447;28;20059;-76
2021/12/31 04:51:39;;;;;;;0.00;0.00;;;;;20.70;99869.00;;;;5088686;28;20072;-76
2021/12/31 04:54:14;;;;;;;0.00;0.00;;;;;20.70;99872.00;;;;5087820;28;20040;-76
2021/12/31 04:56:44;;;;;;;0.10;0.10;;;;;20.80;99882.00;;;;5088854;28;20071;-76
2021/12/31 04:59:14;;;;;;;0.20;0.15;;;;;20.90;99881.00;;;;5088752;28;20043;-75
2021/12/31 05:01:43;;;;;;;0.00;0.00;;;;;21.00;99873.00;;;;5087131;28;20048;-76
2021/12/31 05:04:14;;;;;;;0.70;0.70;;;;;21.00;99872.00;;;;5088463;28;20090;-76
2021/12/31 05:06:44;;;;;;;0.00;0.00;;;;;21.00;99848.00;;;;5088988;28;20050;-76
2021/12/31 05:09:13;;;;;;;0.00;0.00;;;;;21.00;99848.00;;;;5088430;28;20051;-76
2021/12/31 05:11:43;;;;;;;1.08;0.38;;;;;21.10;99850.00;;;;5088155;28;20126;-76
2021/12/31 05:14:12;;;;;;;0.00;0.00;;;;;21.10;99849.00;;;;5087910;28;20035;-76
2021/12/31 05:16:42;;;;;;;0.00;0.00;;;;;21.10;99830.00;;;;5088319;28;20043;-76
2021/12/31 05:19:12;;;;;;;0.00;0.00;;;;;21.10;99847.00;;;;5088521;28;20495;-76
2021/12/31 05:21:41;;;;;;;0.00;0.00;;;;;21.10;99847.00;;;;5087744;28;20449;-76
2021/12/31 05:24:14;;;;;;;0.05;0.05;;;;;21.10;99844.00;;;;5087752;28;20418;-76
2021/12/31 05:26:44;;;;;;;0.00;0.00;;;;;21.00;99852.00;;;;5086929;28;20077;-78
2021/12/31 05:29:16;;;;;;;0.00;0.00;;;;;21.00;99852.00;;;;5087288;28;20123;-78
2021/12/31 05:31:46;;;;;;;0.00;0.00;;;;;20.90;99855.00;;;;5087353;28;20052;-76
2021/12/31 05:34:16;;;;;;;1.30;0.65;;;;;21.00;99831.00;;;;5088067;28;20036;-75
2021/12/31 05:36:48;;;;;;;0.08;0.08;;;;;20.90;99846.00;;;;5085425;28;20466;-76
2021/12/31 05:39:21;;;;;;;0.00;0.00;;;;;20.90;99850.00;;;;5088867;28;20040;-78
2021/12/31 05:41:52;;;;;;;0.00;0.00;;;;;20.90;99844.00;;;;5088147;28;20055;-76
2021/12/31 05:44:23;;;;;;;0.00;0.00;;;;;20.90;99843.00;;;;5087705;28;20040;-77
2021/12/31 05:46:55;;;;;;;0.00;0.00;;;;;20.80;99826.00;;;;5087513;28;20066;-76
2021/12/31 05:49:29;;;;;;;0.30;0.20;;;;;20.80;99834.00;;;;5087707;28;20487;-76
2021/12/31 05:51:59;;;;;;;0.00;0.00;;;;;20.70;99806.00;;;;5087053;28;20054;-76
2021/12/31 05:54:28;;;;;;;0.47;0.10;;;;;20.70;99843.00;;;;5088636;28;20171;-76
2021/12/31 05:56:58;;;;;;;0.00;0.00;;;;;20.60;99840.00;;;;5086205;28;20040;-76
2021/12/31 05:59:28;;;;;;;0.00;0.00;;;;;20.60;99821.00;;;;5087360;28;20036;-76
2021/12/31 06:01:57;;;;;;;0.08;0.08;;;;;20.50;99828.00;;;;5087059;28;20048;-76
2021/12/31 06:04:26;;;;;;;0.52;0.50;;;;;20.50;99829.00;;;;5087707;28;20051;-76
2021/12/31 06:06:57;;;;;;;0.00;0.00;;;;;20.50;99843.00;;;;5087769;28;20040;-76
2021/12/31 06:09:26;;;;;;;0.00;0.00;;;;;20.50;99806.00;;;;5087704;28;20542;-75
2021/12/31 06:11:56;;;;;;;0.10;0.10;;;;;20.50;99844.00;;;;5087072;28;20070;-75
2021/12/31 06:14:26;;;;;;;0.00;0.00;;;;;20.50;99845.00;;;;5087406;28;20086;-76
2021/12/31 06:17:02;;;;;;;0.00;0.00;;;;;20.40;99835.00;;;;5087450;28;20054;-75
2021/12/31 06:19:32;;;;;;;0.10;0.10;;;;;20.30;99835.00;;;;5087035;28;20182;-75
2021/12/31 06:22:02;;;;;;;0.20;0.20;;;;;20.30;99830.00;;;;5085369;28;20043;-76
2021/12/31 06:24:32;;;;;;;0.00;0.00;;;;;20.10;99813.00;;;;5087483;28;20044;-76
2021/12/31 06:27:01;;;;;;;0.50;0.50;;;;;20.10;99827.00;;;;5087115;28;20131;-75
2021/12/31 06:29:30;;;;;;;0.00;0.00;;;;;20.10;99853.00;;;;5086997;28;20469;-76
2021/12/31 06:32:00;;;;;;;0.70;0.45;;;;;20.10;99851.00;;;;5086411;28;20080;-75
2021/12/31 06:34:30;;;;;;;0.10;0.10;;;;;20.30;99838.00;;;;5086770;28;20499;-75
2021/12/31 06:36:59;;;;;;;0.15;0.15;;;;;20.30;99844.00;;;;5087460;28;20090;-75
2021/12/31 06:39:29;;;;;;;0.20;0.10;;;;;20.30;99837.00;;;;5086342;28;20055;-76
2021/12/31 06:42:01;;;;;;;0.30;0.30;;;;;20.20;99839.00;;;;5085870;28;20435;-75
2021/12/31 06:44:31;;;;;;;0.00;0.00;;;;;20.30;99828.00;;;;5086405;28;20515;-75
2021/12/31 06:47:00;;;;;;;0.60;0.60;;;;;20.10;99835.00;;;;5086907;28;20060;-76
2021/12/31 06:49:30;;;;;;;0.00;0.00;;;;;20.20;99834.00;;;;5086659;28;20535;-76
2021/12/31 06:51:59;;;;;;;0.00;0.00;;;;;20.00;99835.00;;;;5086136;28;20423;-76
2021/12/31 06:54:29;;;;;;;0.03;0.03;;;;;19.90;99829.00;;;;5086541;28;20506;-75
2021/12/31 06:56:58;;;;;;;0.00;0.00;;;;;19.90;99828.00;;;;5086286;28;20052;-75
2021/12/31 06:59:28;;;;;;;0.00;0.00;;;;;19.90;99839.00;;;;5086620;28;20040;-75
2021/12/31 07:01:57;;;;;;;0.05;0.05;;;;;19.80;99841.00;;;;5086822;28;20043;-76
2021/12/31 07:04:27;;;;;;;0.15;0.15;;;;;19.70;99832.00;;;;5086242;28;20056;-76
2021/12/31 07:06:57;;;;;;;0.22;0.22;;;;;19.70;99832.00;;;;5086323;28;20051;-76
2021/12/31 07:09:31;;;;;;;0.00;0.00;;;;;19.60;99861.00;;;;5085316;28;20099;-76
2021/12/31 07:12:00;;;;;;;0.30;0.30;;;;;19.60;99826.00;;;;5086606;28;20059;-76
2021/12/31 07:14:30;;;;;;;0.13;0.13;;;;;19.50;99835.00;;;;5085613;28;20048;-76
2021/12/31 07:16:59;;;;;;;0.00;0.00;;;;;19.60;99836.00;;;;5086459;28;20051;-76
2021/12/31 07:19:29;;;;;;;0.00;0.00;;;;;19.50;99857.00;;;;5088289;28;20051;-76
2021/12/31 07:21:58;;;;;;;0.15;0.15;;;;;19.40;99831.00;;;;5087200;28;20074;-75
2021/12/31 07:24:27;;;;;;;1.35;0.28;;;;;19.40;99826.00;;;;5086700;28;20097;-75
2021/12/31 07:26:57;;;;;;;0.00;0.00;;;;;19.40;99823.00;;;;5086333;28;20540;-75
2021/12/31 07:29:26;;;;;;;0.00;0.00;;;;;19.30;99833.00;;;;5084936;28;20098;-75
2021/12/31 07:31:56;;;;;;;0.00;0.00;;;;;19.20;99838.00;;;;5085114;28;20564;-75
2021/12/31 07:34:26;;;;;;;0.00;0.00;;;;;19.20;99822.00;;;;5086449;28;20741;-76
2021/12/31 07:36:56;;;;;;;0.00;0.00;;;;;19.30;99841.00;;;;5085778;28;20497;-75
2021/12/31 07:39:31;;;;;;;0.00;0.00;;;;;19.20;99838.00;;;;5085045;28;20059;-75
2021/12/31 07:42:00;;;;;;;0.00;0.00;;;;;19.10;99837.00;;;;5085830;28;20575;-75
2021/12/31 07:44:34;;;;;;;0.13;0.13;;;;;19.10;99847.00;;;;5085479;28;20529;-76
2021/12/31 07:47:04;;;;;;;0.55;0.55;;;;;19.20;99833.00;;;;5086356;28;20043;-75
2021/12/31 07:49:33;;;;;;;0.10;0.10;;;;;19.30;99836.00;;;;5086647;28;20388;-75
2021/12/31 07:52:03;;;;;;;0.00;0.00;;;;;19.30;99858.00;;;;5085468;28;20047;-76
2021/12/31 07:54:32;;;;;;;0.00;0.00;;;;;19.20;99842.00;;;;5085913;28;20623;-75
2021/12/31 07:57:02;;;;;;;0.40;0.40;;;;;19.20;99843.00;;;;5086455;28;20052;-75
2021/12/31 07:59:32;;;;;;;0.22;0.20;;;;;19.20;99836.00;;;;5088802;28;20049;-75
2021/12/31 08:02:01;;;;;;;0.10;0.10;;;;;19.20;99858.00;;;;5090076;28;20056;-75
2021/12/31 08:04:33;;;;;;;0.00;0.00;;;;;19.10;99872.00;;;;5089530;28;20507;-76
2021/12/31 08:07:03;;;;;;;1.20;0.50;;;;;19.10;99861.00;;;;5089992;28;20059;-75
2021/12/31 08:09:33;;;;;;;0.88;0.88;;;;;19.00;99866.00;;;;5089705;28;20067;-76
2021/12/31 08:12:02;;;;;;;0.00;0.00;;;;;19.10;99875.00;;;;5087965;28;20048;-75
2021/12/31 08:14:31;;;;;;;0.00;0.00;;;;;19.00;99868.00;;;;5089649;28;20043;-76
2021/12/31 08:17:01;;;;;;;0.00;0.00;;;;;19.00;99866.00;;;;5088532;28;20575;-75
2021/12/31 08:19:30;;;;;;;1.02;0.25;;;;;18.90;99855.00;;;;5089102;28;20055;-75
2021/12/31 08:22:00;;;;;;;0.00;0.00;;;;;18.90;99874.00;;;;5089743;28;20044;-76
2021/12/31 08:24:29;;;;;;;0.00;0.00;;;;;18.80;99866.00;;;;5088383;28;20036;-75
2021/12/31 08:26:58;;;;;;;7.28;0.63;;;;;18.70;99850.00;;;;5089403;28;20508;-76
2021/12/31 08:29:28;;;;;;;0.00;0.00;;;;;18.70;99873.00;;;;5089613;28;20426;-75
2021/12/31 08:31:57;;;;;;;0.00;0.00;;;;;18.70;99872.00;;;;5089364;28;20408;-75
2021/12/31 08:34:26;;;;;;;0.00;0.00;;;;;18.60;99872.00;;;;5087738;28;20056;-75
2021/12/31 08:36:56;;;;;;;0.32;0.32;;;;;18.60;99888.00;;;;5088909;28;20393;-75
2021/12/31 08:39:26;;;;;;;0.00;0.00;;;;;18.60;99898.00;;;;5089358;28;20044;-75
2021/12/31 08:41:55;;;;;;;0.30;0.28;;;;;18.70;99880.00;;;;5088869;28;20052;-75
2021/12/31 08:44:25;;;;;;;0.00;0.00;;;;;18.60;99893.00;;;;5088901;28;20043;-75
2021/12/31 08:46:55;;;;;;;0.70;0.70;;;;;18.70;99890.00;;;;5089098;28;20036;-76
2021/12/31 08:49:24;;;;;;;0.00;0.00;;;;;18.60;99893.00;;;;5087521;28;20048;-75
2021/12/31 08:51:54;;;;;;;1.75;1.55;;;;;18.70;99889.00;;;;5086778;28;20048;-76
2021/12/31 08:54:23;;;;;;;0.20;0.20;;;;;18.80;99900.00;;;;5085319;28;20051;-76
2021/12/31 08:56:54;;;;;;;;;;;;;18.90;99899.00;;;;5085506;28;20145;-76
2021/12/31 08:59:23;;;;;;;4.20;0.40;;;;;18.90;99884.00;;;;5088680;28;20433;-76
2021/12/31 09:01:53;;;;;;;0.20;0.20;;;;;19.00;99886.00;;;;5087344;28;20498;-76
2021/12/31 09:04:23;;;;;;;0.00;0.00;;;;;19.00;99889.00;;;;5087364;28;20138;-76
2021/12/31 09:06:53;;;;;;;0.00;0.00;;;;;19.00;99880.00;;;;5087383;28;21129;-76
2021/12/31 09:09:22;;;;;;;0.52;0.43;;;;;19.00;99890.00;;;;5087150;28;20055;-76
2021/12/31 09:11:54;;;;;;;0.00;0.00;;;;;19.00;99909.00;;;;5086672;28;20063;-76
2021/12/31 09:14:24;;;;;;;0.00;0.00;;;;;19.10;99912.00;;;;5088280;28;20470;-76
2021/12/31 09:16:55;;;;;;;0.00;0.00;;;;;19.20;99910.00;;;;5088649;28;20089;-75
2021/12/31 09:19:24;;;;;;;0.00;0.00;;;;;19.30;99920.00;;;;5088565;28;20055;-76
2021/12/31 09:21:55;;;;;;;0.03;0.03;;;;;19.40;99933.00;;;;5088051;28;20048;-76
2021/12/31 09:24:25;;;;;;;0.00;0.00;;;;;19.50;99934.00;;;;5089188;28;20739;-76
2021/12/31 09:26:55;;;;;;;0.00;0.00;;;;;19.60;99941.00;;;;5087710;28;20036;-76
2021/12/31 09:29:25;;;;;;;0.00;0.00;;;;;19.70;99929.00;;;;5086861;28;20044;-76
2021/12/31 09:31:54;;;;;;;0.45;0.45;;;;;19.80;99946.00;;;;5087946;28;20408;-76
2021/12/31 09:34:24;;;;;;;0.00;0.00;;;;;20.50;99899.00;;;;5088168;28;20097;-76
2021/12/31 09:36:53;;;;;;;0.00;0.00;;;;;21.00;99907.00;;;;5087902;28;20059;-76
2021/12/31 09:39:23;;;;;;;0.10;0.10;;;;;23.10;99849.00;;;;5088922;28;20048;-76
2021/12/31 09:41:53;;;;;;;0.00;0.00;;;;;22.80;99922.00;;;;5087663;28;20396;-76
2021/12/31 09:44:22;;;;;;;0.70;0.70;;;;;22.00;99958.00;;;;5087914;28;20052;-76
2021/12/31 09:46:52;;;;;;;0.17;0.17;;;;;22.10;99925.00;;;;5087115;28;20048;-76
2021/12/31 09:49:22;;;;;;;0.10;0.10;;;;;21.90;99944.00;;;;5086612;28;20058;-76
2021/12/31 09:51:53;;;;;;;0.20;0.20;;;;;23.70;99911.00;;;;5087778;28;20052;-76
2021/12/31 09:54:24;;;;;;;0.00;0.00;;;;;22.60;99987.00;;;;5088326;28;20503;-76
2021/12/31 09:56:55;;;;;;;0.00;0.00;;;;;22.20;99973.00;;;;5087786;28;20043;-76
2021/12/31 09:59:27;;;;;;;0.10;0.10;;;;;22.20;99976.00;;;;5086810;28;20101;-76
2021/12/31 10:01:56;;;;;;;0.00;0.00;;;;;22.50;99979.00;;;;5087705;28;20032;-76
2021/12/31 10:04:52;;;;;;;0.00;0.00;;;;;22.70;99993.00;;;;5086453;28;20063;-76
2021/12/31 10:07:24;;;;;;;0.00;0.00;;;;;22.90;100008.00;;;;5087393;28;20127;-76
2021/12/31 10:10:09;;;;;;;0.00;0.00;;;;;23.00;99996.00;;;;5086883;28;20419;-76
2021/12/31 10:12:58;;;;;;;0.00;0.00;;;;;23.20;100006.00;;;;5087292;28;20047;-76
2021/12/31 10:15:28;;;;;;;0.38;0.38;;;;;23.20;99985.00;;;;5087062;28;20028;-76
2021/12/31 10:17:57;;;;;;;0.00;0.00;;;;;23.30;99982.00;;;;5086971;28;20047;-76
2021/12/31 10:20:27;;;;;;;0.00;0.00;;;;;23.70;99999.00;;;;5086732;28;20097;-76
2021/12/31 10:23:13;;;;;;;0.10;0.10;;;;;24.00;99989.00;;;;5086777;28;20056;-76
2021/12/31 10:25:43;;;;;;;0.00;0.00;;;;;24.40;99979.00;;;;5087752;28;20040;-76
2021/12/31 10:28:16;;;;;;;0.00;0.00;;;;;24.70;99986.00;;;;5087021;28;20093;-76
2021/12/31 10:30:46;;;;;;;0.00;0.00;;;;;24.90;99980.00;;;;5085984;28;20039;-76
2021/12/31 10:33:16;;;;;;;0.00;0.00;;;;;25.30;99976.00;;;;5087121;28;20040;-76
2021/12/31 10:35:47;;;;;;;0.00;0.00;;;;;26.20;99965.00;;;;5086917;28;20055;-76
2021/12/31 10:38:17;;;;;;;0.00;0.00;;;;;26.30;99992.00;;;;5087306;28;20062;-76
2021/12/31 10:40:47;;;;;;;0.00;0.00;;;;;26.00;99986.00;;;;5087088;28;20040;-76
2021/12/31 10:43:21;;;;;;;0.00;0.00;;;;;26.00;100007.00;;;;5087183;28;20441;-76
2021/12/31 10:46:02;;;;;;;0.10;0.10;;;;;26.00;99993.00;;;;5086908;28;20553;-76
2021/12/31 10:48:44;;;;;;;0.00;0.00;;;;;26.00;100018.00;;;;5086910;28;20659;-76
2021/12/31 10:51:34;;;;;;;0.00;0.00;;;;;26.10;100004.00;;;;5086717;28;20571;-76
2021/12/31 10:55:02;;;;;;;0.00;0.00;;;;;26.30;99989.00;;;;5086294;28;20032;-76
2021/12/31 10:57:37;;;;;;;0.00;0.00;;;;;26.70;99979.00;;;;5084250;28;20145;-76
2021/12/31 11:00:09;;;;;;;0.00;0.00;;;;;26.80;99965.00;;;;5086930;28;20439;-77
2021/12/31 11:02:40;;;;;;;0.00;0.00;;;;;27.10;99980.00;;;;5086376;28;20518;-76
2021/12/31 11:05:11;;;;;;;0.00;0.00;;;;;27.70;99970.00;;;;5086543;28;20066;-77
2021/12/31 11:07:41;;;;;;;0.00;0.00;;;;;28.10;99968.00;;;;5086414;28;20085;-76
2021/12/31 11:10:37;;;;;;;0.00;0.00;;;;;28.70;99964.00;;;;5086782;28;20105;-77
2021/12/31 11:13:19;;;;;;;0.00;0.00;;;;;29.60;99947.00;;;;5087883;28;20044;-77
2021/12/31 11:15:54;;;;;;;0.10;0.10;;;;;29.30;99969.00;;;;5087369;28;20044;-76
2021/12/31 11:18:24;;;;;;;0.00;0.00;;;;;29.00;99946.00;;;;5087196;28;20043;-76
2021/12/31 11:21:08;;;;;;;0.00;0.00;;;;;29.20;99988.00;;;;5085962;28;20047;-77
2021/12/31 11:23:40;;;;;;;0.08;0.08;;;;;29.00;99973.00;;;;5085790;28;20097;-77
2021/12/31 11:26:14;;;;;;;0.05;0.05;;;;;30.70;99955.00;;;;5086019;28;20099;-77
2021/12/31 11:28:46;;;;;;;0.00;0.00;;;;;30.10;99962.00;;;;5086084;28;20055;-76
2021/12/31 11:31:18;;;;;;;0.00;0.00;;;;;30.20;99960.00;;;;5085862;28;20054;-77
2021/12/31 11:34:01;;;;;;;0.00;0.00;;;;;29.50;99978.00;;;;5086020;28;20048;-77
2021/12/31 11:36:52;;;;;;;0.00;0.00;;;;;30.10;99967.00;;;;5086631;28;20522;-75
2021/12/31 11:39:31;;;;;;;0.00;0.00;;;;;30.30;99982.00;;;;5085850;28;20056;-75
2021/12/31 11:42:02;;;;;;;0.00;0.00;;;;;32.00;99877.00;;;;5086295;28;20048;-76
2021/12/31 11:44:34;;;;;;;1.75;0.65;;;;;31.60;99948.00;;;;5085734;28;20047;-76
2021/12/31 11:47:13;;;;;;;0.00;0.00;;;;;32.70;99908.00;;;;5086331;28;20047;-76
2021/12/31 11:49:45;;;;;;;0.10;0.10;;;;;31.10;99935.00;;;;5086149;28;20486;-75
2021/12/31 11:52:22;;;;;;;0.00;0.00;;;;;33.30;99846.00;;;;5085799;28;20469;-76
2021/12/31 11:55:18;;;;;;;0.00;0.00;;;;;33.90;99853.00;;;;5085689;28;20036;-76
2021/12/31 11:57:52;;;;;;;0.00;0.00;;;;;33.30;99879.00;;;;5086424;28;20051;-76
2021/12/31 12:00:27;;;;;;;0.00;0.00;;;;;33.50;99900.00;;;;5085426;28;20400;-77
2021/12/31 12:02:56;;;;;;;0.00;0.00;;;;;33.10;99907.00;;;;5085635;28;20047;-77
2021/12/31 12:05:52;;;;;;;0.00;0.00;;;;;33.10;99971.00;;;;5085816;28;20048;-77
2021/12/31 12:08:27;;;;;;;0.03;0.03;;;;;32.00;99983.00;;;;5083385;28;20507;-76
2021/12/31 12:10:57;;;;;;;0.17;0.17;;;;;31.40;99982.00;;;;5085903;28;20048;-76
2021/12/31 12:13:27;;;;;;;0.00;0.00;;;;;31.80;99988.00;;;;5086214;28;20048;-77
2021/12/31 12:15:56;;;;;;;0.00;0.00;;;;;32.50;99975.00;;;;5086265;28;20083;-77
2021/12/31 12:18:52;;;;;;;0.00;0.00;;;;;33.00;99976.00;;;;5085703;28;20036;-77
2021/12/31 12:21:35;;;;;;;0.00;0.00;;;;;32.70;99971.00;;;;5081712;28;20109;-77
2021/12/31 12:24:07;;;;;;;0.00;0.00;;;;;32.90;99974.00;;;;5086157;28;20545;-78
2021/12/31 12:26:36;;;;;;;0.55;0.55;;;;;32.60;99962.00;;;;5085549;28;20503;-76
2021/12/31 12:29:06;;;;;;;0.00;0.00;;;;;32.60;99978.00;;;;5085846;28;20047;-78
2021/12/31 12:31:40;;;;;;;0.82;0.35;;;;;32.70;99983.00;;;;5086259;28;20082;-77
2021/12/31 12:34:10;;;;;;;0.00;0.00;;;;;32.40;99975.00;;;;5086031;28;20044;-77
2021/12/31 12:36:40;;;;;;;0.00;0.00;;;;;32.60;99960.00;;;;5086134;28;20048;-76
2021/12/31 12:39:09;;;;;;;0.10;0.10;;;;;32.60;99965.00;;;;5084152;28;20089;-77
2021/12/31 12:41:38;;;;;;;0.10;0.10;;;;;32.40;99961.00;;;;5085104;28;20044;-76
2021/12/31 12:44:09;;;;;;;0.23;0.10;;;;;32.70;99972.00;;;;5086462;28;20043;-77